Time;durP1;ratioP1;P1;durP2;ratioP2;P2;SDS_P1;SDS_P2;PMS_P1;PMS_P2;Temp;Humidity;BMP_temperature;BMP_pressure;BME280_temperature;BME280_humidity;BME280_pressure;Samples;Min_cycle;Max_cycle;Signal;HPM_P1;HPM_P2
2021/08/12 00:01:22;;;;;;;11.60;6.75;;;;;;;;;;5043043;28;20036;-62
2021/08/12 00:03:48;;;;;;;14.50;7.63;;;;;;;;;;5040951;28;20048;-63
2021/08/12 00:06:14;;;;;;;13.77;7.03;;;;;;;;;;5043056;28;20135;-64
2021/08/12 00:08:39;;;;;;;10.60;6.70;;;;;;;;;;5042139;28;20028;-62
2021/08/12 00:11:05;;;;;;;11.95;7.25;;;;;;;;;;5036522;28;20033;-63
2021/08/12 00:13:31;;;;;;;14.57;6.82;;;;;;;;;;5045909;28;20028;-63
2021/08/12 00:15:56;;;;;;;14.40;7.45;;;;;;;;;;5044168;28;20013;-63
2021/08/12 00:18:21;;;;;;;11.77;7.13;;;;;;;;;;5043858;28;20032;-63
2021/08/12 00:20:47;;;;;;;14.68;7.43;;;;;;;;;;5042476;28;20025;-63
2021/08/12 00:23:12;;;;;;;12.27;7.03;;;;;;;;;;5046642;28;20029;-62
2021/08/12 00:25:38;;;;;;;18.10;8.00;;;;;;;;;;5049439;28;20410;-62
2021/08/12 00:28:04;;;;;;;11.23;6.60;;;;;;;;;;5041076;28;20028;-63
2021/08/12 00:30:30;;;;;;;12.60;6.80;;;;;;;;;;5038028;28;20436;-62
2021/08/12 00:32:55;;;;;;;14.32;7.07;;;;;;;;;;5044051;28;20051;-62
2021/08/12 00:35:20;;;;;;;11.43;6.47;;;;;;;;;;5043306;28;20028;-63
2021/08/12 00:37:46;;;;;;;14.95;6.97;;;;;;;;;;5037797;28;20447;-63
2021/08/12 00:40:13;;;;;;;11.95;6.85;;;;;;;;;;5040500;28;20033;-63
2021/08/12 00:42:38;;;;;;;13.68;7.20;;;;;;;;;;5042117;28;20025;-63
2021/08/12 00:45:04;;;;;;;11.02;6.70;;;;;;;;;;5040626;28;20399;-62
2021/08/12 00:47:30;;;;;;;11.38;7.15;;;;;;;;;;5037433;28;20041;-63
2021/08/12 00:49:55;;;;;;;13.02;7.25;;;;;;;;;;5038780;28;20355;-63
2021/08/12 00:52:22;;;;;;;14.05;7.75;;;;;;;;;;5034727;28;20035;-62
2021/08/12 00:54:49;;;;;;;12.93;6.28;;;;;;;;;;5043668;28;20044;-62
2021/08/12 00:57:15;;;;;;;12.27;6.70;;;;;;;;;;5042029;28;20064;-61
2021/08/12 00:59:41;;;;;;;12.30;7.13;;;;;;;;;;5039250;28;20032;-61
2021/08/12 01:02:11;;;;;;;14.25;7.30;;;;;;;;;;5039282;28;20113;-62
2021/08/12 01:04:47;;;;;;;13.63;7.40;;;;;;;;;;5042389;28;20043;-62
2021/08/12 01:07:32;;;;;;;14.05;6.80;;;;;;;;;;5042758;28;20251;-62
2021/08/12 01:10:22;;;;;;;16.63;7.40;;;;;;;;;;5041268;28;20387;-62
2021/08/12 01:13:12;;;;;;;14.88;7.43;;;;;;;;;;5043057;28;20040;-62
2021/08/12 01:15:44;;;;;;;13.57;7.18;;;;;;;;;;5046154;28;20033;-62
2021/08/12 01:18:49;;;;;;;14.07;7.13;;;;;;;;;;5046621;28;20116;-61
2021/08/12 01:21:49;;;;;;;12.10;7.28;;;;;;;;;;5046352;28;20041;-61
2021/08/12 01:24:15;;;;;;;12.45;7.18;;;;;;;;;;5044555;28;20025;-62
2021/08/12 01:26:43;;;;;;;13.05;7.15;;;;;;;;;;5044139;28;20104;-62
2021/08/12 01:29:13;;;;;;;14.25;7.30;;;;;;;;;;5045511;28;20020;-62
2021/08/12 01:31:51;;;;;;;12.80;7.28;;;;;;;;;;5046230;28;20020;-62
2021/08/12 01:34:25;;;;;;;11.57;7.22;;;;;;;;;;5044762;28;20028;-62
2021/08/12 01:36:54;;;;;;;12.90;7.32;;;;;;;;;;5046734;28;20017;-62
2021/08/12 01:39:20;;;;;;;;;;;;;;;;;;5049457;28;20032;-62
2021/08/12 01:41:46;;;;;;;12.02;6.90;;;;;;;;;;5042120;28;19999;-62
2021/08/12 01:44:13;;;;;;;12.75;7.10;;;;;;;;;;5047195;28;20040;-62
2021/08/12 01:46:39;;;;;;;12.68;6.60;;;;;;;;;;5044201;28;20033;-62
2021/08/12 01:49:06;;;;;;;14.57;6.60;;;;;;;;;;5042804;28;20395;-62
2021/08/12 01:51:33;;;;;;;10.15;6.75;;;;;;;;;;5043015;28;20268;-62
2021/08/12 01:54:00;;;;;;;13.82;7.22;;;;;;;;;;5038712;28;20029;-62
2021/08/12 01:56:27;;;;;;;13.90;6.90;;;;;;;;;;5043504;28;20029;-62
2021/08/12 01:58:56;;;;;;;14.90;7.68;;;;;;;;;;5045672;28;20377;-63
2021/08/12 02:01:22;;;;;;;14.27;6.90;;;;;;;;;;5042588;28;20104;-62
2021/08/12 02:03:49;;;;;;;12.98;7.40;;;;;;;;;;5045437;28;20564;-62
2021/08/12 02:06:14;;;;;;;15.35;8.00;;;;;;;;;;5038533;28;20420;-62
2021/08/12 02:08:40;;;;;;;14.48;7.45;;;;;;;;;;5043926;28;20021;-62
2021/08/12 02:11:05;;;;;;;12.65;7.63;;;;;;;;;;5043950;28;20445;-62
2021/08/12 02:13:31;;;;;;;11.85;7.22;;;;;;;;;;5045026;28;20533;-62
2021/08/12 02:15:56;;;;;;;13.38;6.65;;;;;;;;;;5042200;28;20025;-62
2021/08/12 02:18:22;;;;;;;13.98;6.47;;;;;;;;;;5046109;28;20036;-63
2021/08/12 02:20:59;;;;;;;13.18;6.93;;;;;;;;;;5041035;28;20021;-62
2021/08/12 02:23:29;;;;;;;12.43;7.40;;;;;;;;;;5049944;28;20108;-62
2021/08/12 02:25:58;;;;;;;12.35;7.38;;;;;;;;;;5044571;28;20051;-62
2021/08/12 02:28:24;;;;;;;11.43;6.32;;;;;;;;;;5049164;28;20482;-62
2021/08/12 02:30:53;;;;;;;12.60;7.28;;;;;;;;;;5044079;28;20078;-62
2021/08/12 02:33:23;;;;;;;11.77;6.72;;;;;;;;;;5041287;28;20067;-62
2021/08/12 02:35:49;;;;;;;13.32;6.70;;;;;;;;;;5042372;28;20052;-62
2021/08/12 02:38:16;;;;;;;10.55;6.57;;;;;;;;;;5047734;28;20471;-62
2021/08/12 02:40:43;;;;;;;13.35;7.03;;;;;;;;;;5042441;28;20032;-62
2021/08/12 02:43:09;;;;;;;12.68;7.63;;;;;;;;;;5044829;28;20496;-62
2021/08/12 02:45:35;;;;;;;13.68;6.78;;;;;;;;;;5046192;28;20044;-62
2021/08/12 02:48:03;;;;;;;14.07;7.20;;;;;;;;;;5044817;28;20310;-62
2021/08/12 02:50:31;;;;;;;14.25;7.20;;;;;;;;;;5042726;28;20083;-63
2021/08/12 02:52:57;;;;;;;11.95;7.25;;;;;;;;;;5043227;28;20037;-63
2021/08/12 02:55:25;;;;;;;11.85;7.57;;;;;;;;;;5044709;28;20120;-62
2021/08/12 02:57:51;;;;;;;11.43;6.80;;;;;;;;;;5044712;28;20075;-62
2021/08/12 03:00:17;;;;;;;14.50;7.63;;;;;;;;;;5046109;28;20475;-62
2021/08/12 03:02:47;;;;;;;13.10;7.05;;;;;;;;;;5042462;28;21254;-63
2021/08/12 03:05:14;;;;;;;15.30;7.47;;;;;;;;;;5045247;28;20025;-62
2021/08/12 03:07:42;;;;;;;11.40;7.50;;;;;;;;;;5043221;28;20038;-62
2021/08/12 03:10:10;;;;;;;10.18;6.65;;;;;;;;;;5046291;28;20105;-62
2021/08/12 03:12:35;;;;;;;13.93;7.22;;;;;;;;;;5043683;28;20407;-62
2021/08/12 03:15:01;;;;;;;13.98;7.13;;;;;;;;;;5043284;28;20181;-62
2021/08/12 03:17:27;;;;;;;13.60;7.30;;;;;;;;;;5049304;28;20034;-62
2021/08/12 03:19:52;;;;;;;10.63;6.40;;;;;;;;;;5038745;28;20025;-61
2021/08/12 03:22:18;;;;;;;12.10;7.13;;;;;;;;;;5046351;28;20155;-62
2021/08/12 03:24:45;;;;;;;12.55;6.90;;;;;;;;;;5045717;28;20037;-63
2021/08/12 03:27:13;;;;;;;11.18;6.72;;;;;;;;;;5045396;28;20039;-61
2021/08/12 03:29:42;;;;;;;13.05;7.45;;;;;;;;;;5049197;28;20029;-61
2021/08/12 03:32:08;;;;;;;11.13;6.75;;;;;;;;;;5046107;28;20382;-62
2021/08/12 03:34:35;;;;;;;11.88;7.35;;;;;;;;;;5046385;28;20112;-61
2021/08/12 03:37:01;;;;;;;13.38;7.28;;;;;;;;;;5042585;28;20052;-62
2021/08/12 03:39:27;;;;;;;11.43;6.95;;;;;;;;;;5045800;28;20471;-62
2021/08/12 03:41:52;;;;;;;13.60;6.90;;;;;;;;;;5047829;28;20037;-63
2021/08/12 03:44:18;;;;;;;12.20;6.63;;;;;;;;;;5044551;28;20116;-62
2021/08/12 03:46:44;;;;;;;15.15;7.50;;;;;;;;;;5046771;28;20028;-62
2021/08/12 03:49:10;;;;;;;11.82;7.50;;;;;;;;;;5040710;28;20468;-62
2021/08/12 03:51:35;;;;;;;15.23;8.02;;;;;;;;;;5039367;28;20071;-61
2021/08/12 03:54:01;;;;;;;13.70;7.75;;;;;;;;;;5042550;28;20061;-62
2021/08/12 03:56:26;;;;;;;14.75;7.85;;;;;;;;;;5045574;28;20417;-62
2021/08/12 03:58:52;;;;;;;14.63;7.35;;;;;;;;;;5035409;28;20158;-62
2021/08/12 04:01:18;;;;;;;13.27;7.20;;;;;;;;;;5043737;28;20025;-62
2021/08/12 04:03:43;;;;;;;14.80;7.80;;;;;;;;;;5042726;28;20037;-62
2021/08/12 04:06:08;;;;;;;15.52;8.00;;;;;;;;;;5043546;28;20039;-63
2021/08/12 04:08:35;;;;;;;16.20;8.20;;;;;;;;;;5042917;28;20029;-62
2021/08/12 04:11:01;;;;;;;15.20;7.18;;;;;;;;;;5041688;28;20127;-62
2021/08/12 04:13:26;;;;;;;15.88;7.18;;;;;;;;;;5040914;28;20480;-62
2021/08/12 04:15:51;;;;;;;12.65;7.53;;;;;;;;;;5044474;28;20037;-62
2021/08/12 04:18:17;;;;;;;14.25;7.35;;;;;;;;;;5042962;28;20044;-62
2021/08/12 04:20:42;;;;;;;16.55;7.35;;;;;;;;;;5044952;28;20198;-62
2021/08/12 04:23:08;;;;;;;13.13;7.38;;;;;;;;;;5043228;28;20495;-62
2021/08/12 04:25:35;;;;;;;13.05;7.40;;;;;;;;;;5038368;28;20110;-61
2021/08/12 04:28:00;;;;;;;13.90;7.63;;;;;;;;;;5045365;28;20025;-61
2021/08/12 04:30:26;;;;;;;16.80;9.20;;;;;;;;;;5028749;28;20083;-62
2021/08/12 04:32:51;;;;;;;24.15;8.68;;;;;;;;;;5038880;28;20025;-62
2021/08/12 04:35:17;;;;;;;14.18;8.05;;;;;;;;;;5046513;28;20034;-62
2021/08/12 04:37:44;;;;;;;12.82;7.25;;;;;;;;;;5039358;28;20025;-61
2021/08/12 04:40:12;;;;;;;12.20;6.93;;;;;;;;;;5052096;28;20115;-62
2021/08/12 04:42:37;;;;;;;13.43;8.13;;;;;;;;;;5046971;28;20029;-62
2021/08/12 04:45:03;;;;;;;17.90;10.25;;;;;;;;;;5044104;28;20039;-62
2021/08/12 04:47:29;;;;;;;24.35;11.70;;;;;;;;;;5037809;28;20035;-62
2021/08/12 04:49:54;;;;;;;16.23;10.23;;;;;;;;;;5043051;28;20496;-62
2021/08/12 04:52:20;;;;;;;18.23;9.20;;;;;;;;;;5038985;28;20037;-62
2021/08/12 04:54:45;;;;;;;12.10;7.55;;;;;;;;;;5041180;28;20077;-62
2021/08/12 04:57:11;;;;;;;11.50;7.85;;;;;;;;;;5036425;28;20060;-62
2021/08/12 04:59:36;;;;;;;16.75;10.32;;;;;;;;;;5037836;28;20412;-61
2021/08/12 05:02:01;;;;;;;14.32;9.63;;;;;;;;;;5043891;28;20069;-61
2021/08/12 05:04:27;;;;;;;25.88;12.20;;;;;;;;;;5044924;28;20601;-61
2021/08/12 05:06:52;;;;;;;21.13;10.88;;;;;;;;;;5041702;28;20434;-61
2021/08/12 05:09:18;;;;;;;17.73;8.32;;;;;;;;;;5040705;28;20033;-61
2021/08/12 05:11:43;;;;;;;12.82;7.35;;;;;;;;;;5039276;28;20028;-61
2021/08/12 05:14:08;;;;;;;12.23;7.43;;;;;;;;;;5041100;28;20611;-61
2021/08/12 05:16:34;;;;;;;12.13;7.32;;;;;;;;;;5041282;28;20031;-61
2021/08/12 05:18:59;;;;;;;13.48;8.25;;;;;;;;;;5042118;28;20024;-61
2021/08/12 05:21:25;;;;;;;12.18;7.82;;;;;;;;;;5043277;28;20606;-61
2021/08/12 05:23:50;;;;;;;14.73;8.55;;;;;;;;;;5042217;28;20040;-61
2021/08/12 05:26:15;;;;;;;17.42;9.88;;;;;;;;;;5042254;28;20086;-60
2021/08/12 05:28:41;;;;;;;17.83;10.18;;;;;;;;;;5041502;28;20079;-61
2021/08/12 05:31:07;;;;;;;19.80;12.63;;;;;;;;;;5030854;28;20373;-61
2021/08/12 05:33:34;;;;;;;16.70;9.70;;;;;;;;;;5038941;28;20465;-61
2021/08/12 05:35:59;;;;;;;13.73;8.38;;;;;;;;;;5038055;28;20102;-61
2021/08/12 05:38:25;;;;;;;15.15;7.93;;;;;;;;;;5038112;28;20061;-61
2021/08/12 05:40:50;;;;;;;13.18;8.57;;;;;;;;;;5042044;28;20120;-61
2021/08/12 05:43:15;;;;;;;13.00;8.50;;;;;;;;;;5033799;28;20017;-61
2021/08/12 05:45:41;;;;;;;15.60;8.27;;;;;;;;;;5039815;28;20388;-61
2021/08/12 05:48:06;;;;;;;18.92;9.73;;;;;;;;;;5039693;28;20531;-59
2021/08/12 05:50:31;;;;;;;18.98;10.60;;;;;;;;;;5032213;28;20080;-61
2021/08/12 05:52:57;;;;;;;14.25;8.90;;;;;;;;;;5035177;28;20089;-61
2021/08/12 05:55:22;;;;;;;17.95;10.63;;;;;;;;;;5034096;28;20107;-62
2021/08/12 05:57:48;;;;;;;19.67;9.75;;;;;;;;;;5030755;28;20083;-61
2021/08/12 06:00:13;;;;;;;15.38;9.45;;;;;;;;;;5038969;28;20028;-62
2021/08/12 06:02:39;;;;;;;14.57;9.70;;;;;;;;;;5038615;28;20040;-62
2021/08/12 06:05:05;;;;;;;16.40;10.65;;;;;;;;;;5040198;28;20308;-62
2021/08/12 06:07:30;;;;;;;15.68;9.98;;;;;;;;;;5038725;28;20033;-61
2021/08/12 06:09:55;;;;;;;15.13;9.65;;;;;;;;;;5047500;28;20020;-62
2021/08/12 06:12:21;;;;;;;16.33;8.60;;;;;;;;;;5045527;28;20036;-62
2021/08/12 06:14:46;;;;;;;18.35;9.65;;;;;;;;;;5037965;28;20033;-62
2021/08/12 06:17:12;;;;;;;15.77;10.35;;;;;;;;;;5032830;28;20021;-62
2021/08/12 06:19:37;;;;;;;18.88;10.40;;;;;;;;;;5035782;28;20032;-61
2021/08/12 06:22:03;;;;;;;14.90;9.73;;;;;;;;;;5044918;28;20040;-60
2021/08/12 06:24:28;;;;;;;12.75;8.93;;;;;;;;;;5034829;28;20769;-61
2021/08/12 06:26:54;;;;;;;16.33;9.40;;;;;;;;;;5040677;28;20120;-61
2021/08/12 06:29:19;;;;;;;14.82;9.73;;;;;;;;;;5045346;28;20017;-61
2021/08/12 06:31:44;;;;;;;14.57;9.18;;;;;;;;;;5037324;28;20025;-61
2021/08/12 06:34:10;;;;;;;15.85;9.88;;;;;;;;;;5040323;28;20347;-61
2021/08/12 06:36:35;;;;;;;18.67;9.88;;;;;;;;;;5043052;28;20067;-61
2021/08/12 06:39:01;;;;;;;16.05;9.48;;;;;;;;;;5044463;28;20504;-62
2021/08/12 06:41:28;;;;;;;14.80;9.77;;;;;;;;;;5039280;28;20452;-61
2021/08/12 06:43:54;;;;;;;16.20;9.77;;;;;;;;;;5041538;28;20033;-62
2021/08/12 06:46:19;;;;;;;17.40;10.02;;;;;;;;;;5039744;28;20037;-61
2021/08/12 06:48:45;;;;;;;16.08;9.68;;;;;;;;;;5038677;28;20030;-61
2021/08/12 06:51:11;;;;;;;15.38;9.02;;;;;;;;;;5040388;28;20029;-61
2021/08/12 06:53:37;;;;;;;15.63;10.10;;;;;;;;;;5032290;28;20033;-61
2021/08/12 06:56:03;;;;;;;14.20;9.45;;;;;;;;;;5036228;28;20040;-61
2021/08/12 06:58:28;;;;;;;15.82;9.93;;;;;;;;;;5036723;28;20029;-61
2021/08/12 07:00:54;;;;;;;17.85;9.50;;;;;;;;;;5038776;28;20034;-59
2021/08/12 07:03:19;;;;;;;15.95;9.43;;;;;;;;;;5040610;28;20028;-60
2021/08/12 07:05:44;;;;;;;17.10;9.23;;;;;;;;;;5038381;28;20051;-61
2021/08/12 07:08:10;;;;;;;15.02;9.23;;;;;;;;;;5042677;28;20029;-61
2021/08/12 07:10:35;;;;;;;13.77;8.95;;;;;;;;;;5041459;28;20041;-60
2021/08/12 07:13:01;;;;;;;13.60;9.07;;;;;;;;;;5039497;28;20025;-60
2021/08/12 07:15:27;;;;;;;18.27;9.77;;;;;;;;;;5035797;28;20025;-60
2021/08/12 07:17:52;;;;;;;17.83;9.70;;;;;;;;;;5038691;28;20443;-61
2021/08/12 07:20:18;;;;;;;15.68;9.93;;;;;;;;;;5035700;28;20033;-61
2021/08/12 07:22:43;;;;;;;16.77;9.13;;;;;;;;;;5038895;28;20037;-60
2021/08/12 07:25:09;;;;;;;16.65;9.50;;;;;;;;;;5036020;28;20025;-61
2021/08/12 07:27:34;;;;;;;20.13;9.85;;;;;;;;;;5035863;28;20033;-61
2021/08/12 07:30:00;;;;;;;14.02;9.20;;;;;;;;;;5038243;28;20776;-61
2021/08/12 07:32:25;;;;;;;21.92;10.05;;;;;;;;;;5036049;28;20075;-62
2021/08/12 07:34:51;;;;;;;17.98;9.57;;;;;;;;;;5037554;28;20083;-61
2021/08/12 07:37:16;;;;;;;19.02;9.10;;;;;;;;;;5036496;28;20032;-62
2021/08/12 07:39:42;;;;;;;14.27;9.15;;;;;;;;;;5040281;28;20025;-62
2021/08/12 07:42:07;;;;;;;12.80;9.05;;;;;;;;;;5032655;28;20068;-62
2021/08/12 07:44:33;;;;;;;16.05;9.00;;;;;;;;;;5037137;28;20116;-62
2021/08/12 07:46:58;;;;;;;17.80;9.25;;;;;;;;;;5031690;28;20112;-62
2021/08/12 07:49:23;;;;;;;15.13;9.18;;;;;;;;;;5036349;28;20043;-63
2021/08/12 07:51:49;;;;;;;14.80;9.35;;;;;;;;;;5041524;28;20032;-63
2021/08/12 07:54:14;;;;;;;16.40;9.40;;;;;;;;;;5039651;28;20032;-62
2021/08/12 07:56:40;;;;;;;15.70;9.40;;;;;;;;;;5043164;28;20373;-62
2021/08/12 07:59:05;;;;;;;15.32;9.38;;;;;;;;;;5042441;28;20465;-63
2021/08/12 08:01:31;;;;;;;18.67;8.93;;;;;;;;;;5038973;28;20028;-62
2021/08/12 08:03:58;;;;;;;12.57;9.32;;;;;;;;;;5040315;28;20086;-61
2021/08/12 08:06:24;;;;;;;15.23;9.90;;;;;;;;;;5043799;28;20037;-63
2021/08/12 08:08:50;;;;;;;16.17;9.20;;;;;;;;;;5042078;28;20057;-60
2021/08/12 08:11:17;;;;;;;13.98;9.40;;;;;;;;;;5040295;28;20091;-60
2021/08/12 08:13:43;;;;;;;13.75;9.38;;;;;;;;;;5043544;28;20047;-61
2021/08/12 08:16:08;;;;;;;15.15;9.80;;;;;;;;;;5040234;28;20029;-61
2021/08/12 08:18:34;;;;;;;18.52;10.15;;;;;;;;;;5039308;28;20025;-61
2021/08/12 08:20:59;;;;;;;16.80;9.48;;;;;;;;;;5038397;28;20025;-61
2021/08/12 08:23:25;;;;;;;16.05;9.68;;;;;;;;;;5038360;28;20403;-61
2021/08/12 08:25:50;;;;;;;14.02;9.27;;;;;;;;;;5043429;28;20040;-61
2021/08/12 08:28:16;;;;;;;16.08;9.43;;;;;;;;;;5044644;28;20040;-63
2021/08/12 08:30:41;;;;;;;15.85;8.95;;;;;;;;;;5039793;28;20460;-64
2021/08/12 08:33:08;;;;;;;14.77;9.13;;;;;;;;;;5041379;28;20030;-62
2021/08/12 08:35:34;;;;;;;14.13;9.27;;;;;;;;;;5038228;28;20029;-62
2021/08/12 08:38:00;;;;;;;14.15;9.18;;;;;;;;;;5039724;28;20510;-62
2021/08/12 08:40:27;;;;;;;15.38;9.75;;;;;;;;;;5034824;28;20032;-61
2021/08/12 08:42:53;;;;;;;14.85;9.77;;;;;;;;;;5034161;28;20029;-62
2021/08/12 08:45:27;;;;;;;13.93;9.68;;;;;;;;;;5036417;28;20075;-61
2021/08/12 08:47:54;;;;;;;19.95;9.63;;;;;;;;;;5043740;28;20108;-61
2021/08/12 08:50:22;;;;;;;15.77;9.00;;;;;;;;;;5039518;28;20028;-62
2021/08/12 08:52:48;;;;;;;22.35;10.75;;;;;;;;;;5040386;28;20485;-62
2021/08/12 08:55:20;;;;;;;16.67;9.15;;;;;;;;;;5039913;28;20033;-62
2021/08/12 08:57:47;;;;;;;17.35;9.40;;;;;;;;;;5035976;28;20057;-63
2021/08/12 09:00:13;;;;;;;16.67;9.98;;;;;;;;;;5033830;28;20033;-62
2021/08/12 09:02:39;;;;;;;17.77;10.23;;;;;;;;;;5034181;28;20036;-62
2021/08/12 09:05:04;;;;;;;16.83;9.77;;;;;;;;;;5036448;28;20041;-62
2021/08/12 09:07:30;;;;;;;17.23;9.40;;;;;;;;;;5025522;28;20968;-63
2021/08/12 09:10:00;;;;;;;15.70;9.57;;;;;;;;;;5042773;28;20455;-63
2021/08/12 09:12:25;;;;;;;18.33;9.70;;;;;;;;;;5040215;28;20188;-63
2021/08/12 09:15:01;;;;;;;14.98;9.20;;;;;;;;;;5040995;28;20550;-62
2021/08/12 09:17:26;;;;;;;17.38;8.73;;;;;;;;;;5035744;28;20033;-62
2021/08/12 09:20:06;;;;;;;15.93;8.93;;;;;;;;;;5036447;28;20563;-63
2021/08/12 09:22:47;;;;;;;16.77;9.95;;;;;;;;;;5040657;28;20028;-63
2021/08/12 09:25:14;;;;;;;13.20;9.32;;;;;;;;;;5040324;28;20028;-62
2021/08/12 09:27:40;;;;;;;16.00;9.50;;;;;;;;;;5043871;28;20368;-63
2021/08/12 09:30:15;;;;;;;15.35;8.95;;;;;;;;;;5036549;28;20035;-62
2021/08/12 09:32:59;;;;;;;20.77;9.65;;;;;;;;;;5033472;28;20041;-63
2021/08/12 09:35:26;;;;;;;15.05;8.48;;;;;;;;;;5047305;28;20367;-63
2021/08/12 09:37:52;;;;;;;15.82;8.55;;;;;;;;;;5042801;28;20400;-63
2021/08/12 09:40:26;;;;;;;16.65;9.32;;;;;;;;;;5041872;28;20090;-63
2021/08/12 09:43:01;;;;;;;13.45;8.90;;;;;;;;;;5042645;28;20436;-63
2021/08/12 09:45:28;;;;;;;14.77;9.05;;;;;;;;;;5045112;28;20087;-63
2021/08/12 09:47:55;;;;;;;14.43;9.13;;;;;;;;;;5040732;28;20397;-63
2021/08/12 09:50:26;;;;;;;15.10;9.07;;;;;;;;;;5041100;28;20403;-63
2021/08/12 09:52:51;;;;;;;14.95;8.90;;;;;;;;;;5045060;28;20021;-63
2021/08/12 09:55:20;;;;;;;14.27;8.93;;;;;;;;;;5044616;28;20032;-63
2021/08/12 09:58:05;;;;;;;16.23;9.30;;;;;;;;;;5047241;28;20103;-63
2021/08/12 10:00:35;;;;;;;19.10;9.77;;;;;;;;;;5037432;28;20041;-63
2021/08/12 10:03:17;;;;;;;16.50;9.65;;;;;;;;;;5038609;28;20098;-63
2021/08/12 10:05:43;;;;;;;14.85;9.50;;;;;;;;;;5045255;28;20533;-63
2021/08/12 10:08:08;;;;;;;15.68;9.27;;;;;;;;;;5042936;28;20056;-63
2021/08/12 10:10:34;;;;;;;14.38;9.27;;;;;;;;;;5042850;28;20025;-63
2021/08/12 10:13:01;;;;;;;17.50;10.20;;;;;;;;;;5050387;28;20078;-63
2021/08/12 10:15:30;;;;;;;15.20;9.73;;;;;;;;;;5043772;28;20079;-63
2021/08/12 10:17:58;;;;;;;17.85;10.10;;;;;;;;;;5045224;28;20060;-64
2021/08/12 10:20:30;;;;;;;16.60;10.48;;;;;;;;;;5041875;28;20057;-63
2021/08/12 10:22:58;;;;;;;13.48;10.07;;;;;;;;;;5040526;28;20038;-64
2021/08/12 10:25:25;;;;;;;19.90;10.30;;;;;;;;;;5043497;28;20499;-64
2021/08/12 10:27:59;;;;;;;19.27;10.20;;;;;;;;;;5046249;28;20029;-64
2021/08/12 10:30:26;;;;;;;15.35;10.05;;;;;;;;;;5043021;28;20148;-64
2021/08/12 10:32:57;;;;;;;19.98;10.98;;;;;;;;;;5042504;28;20020;-62
2021/08/12 10:35:27;;;;;;;15.68;9.75;;;;;;;;;;5043133;28;20051;-62
2021/08/12 10:37:54;;;;;;;16.15;10.25;;;;;;;;;;5043604;28;20158;-59
2021/08/12 10:40:28;;;;;;;14.80;10.05;;;;;;;;;;5040274;28;20025;-60
2021/08/12 10:42:55;;;;;;;15.57;10.05;;;;;;;;;;5040793;28;20036;-60
2021/08/12 10:45:23;;;;;;;15.48;10.52;;;;;;;;;;5046564;28;20024;-60
2021/08/12 10:47:56;;;;;;;20.92;10.60;;;;;;;;;;5038089;28;20040;-62
2021/08/12 10:50:21;;;;;;;16.42;10.45;;;;;;;;;;5040371;28;20098;-62
2021/08/12 10:53:04;;;;;;;14.73;10.55;;;;;;;;;;5040547;28;20111;-61
2021/08/12 10:55:31;;;;;;;15.82;10.45;;;;;;;;;;5043156;28;20048;-62
2021/08/12 10:58:18;;;;;;;15.15;10.95;;;;;;;;;;5036514;28;20036;-63
2021/08/12 11:00:47;;;;;;;23.30;10.25;;;;;;;;;;5038851;28;20033;-61
2021/08/12 11:03:12;;;;;;;17.70;10.85;;;;;;;;;;5036687;28;20103;-60
2021/08/12 11:06:04;;;;;;;16.92;10.38;;;;;;;;;;5039848;28;20468;-60
2021/08/12 11:08:48;;;;;;;15.98;10.60;;;;;;;;;;5036859;28;20328;-60
2021/08/12 11:11:26;;;;;;;16.33;10.75;;;;;;;;;;5047232;28;20451;-61
2021/08/12 11:13:55;;;;;;;18.90;10.55;;;;;;;;;;5046755;28;20035;-60
2021/08/12 11:16:23;;;;;;;17.67;11.35;;;;;;;;;;5039971;28;20224;-61
2021/08/12 11:18:56;;;;;;;15.95;10.70;;;;;;;;;;5042687;28;20065;-59
2021/08/12 11:21:31;;;;;;;16.58;11.02;;;;;;;;;;5034115;28;20028;-60
2021/08/12 11:24:10;;;;;;;17.42;11.40;;;;;;;;;;5033746;28;20124;-60
2021/08/12 11:26:44;;;;;;;18.65;11.20;;;;;;;;;;5042910;28;20039;-61
2021/08/12 11:29:22;;;;;;;19.33;11.02;;;;;;;;;;5040887;28;20037;-61
2021/08/12 11:31:47;;;;;;;20.20;11.35;;;;;;;;;;5045541;28;20499;-61
2021/08/12 11:34:25;;;;;;;20.20;12.20;;;;;;;;;;5036845;28;20033;-62
2021/08/12 11:37:10;;;;;;;18.08;11.40;;;;;;;;;;5036422;28;20036;-61
2021/08/12 11:40:07;;;;;;;18.38;11.68;;;;;;;;;;5036763;28;20403;-61
2021/08/12 11:42:44;;;;;;;22.48;11.98;;;;;;;;;;5031399;28;20044;-62
2021/08/12 11:45:23;;;;;;;19.45;11.73;;;;;;;;;;5032501;28;20033;-60
2021/08/12 11:47:57;;;;;;;22.75;12.40;;;;;;;;;;5039503;28;20032;-61
2021/08/12 11:50:27;;;;;;;20.27;12.48;;;;;;;;;;5044338;28;20091;-62
2021/08/12 11:52:53;;;;;;;20.30;12.23;;;;;;;;;;5038508;28;20094;-62
2021/08/12 11:55:20;;;;;;;21.15;12.50;;;;;;;;;;5037366;28;20403;-61
2021/08/12 11:57:46;;;;;;;19.38;12.27;;;;;;;;;;5034935;28;20025;-62
2021/08/12 12:00:23;;;;;;;26.85;12.55;;;;;;;;;;5038705;28;20032;-62
2021/08/12 12:02:59;;;;;;;24.45;11.40;;;;;;;;;;5032650;28;20427;-61
2021/08/12 12:05:27;;;;;;;20.92;12.00;;;;;;;;;;5036883;28;20077;-62
2021/08/12 12:07:55;;;;;;;18.93;12.17;;;;;;;;;;5042072;28;20032;-63
2021/08/12 12:10:29;;;;;;;22.33;12.55;;;;;;;;;;5047068;28;20037;-63
2021/08/12 12:13:09;;;;;;;27.20;13.07;;;;;;;;;;5042085;28;20485;-64
2021/08/12 12:15:53;;;;;;;21.90;11.75;;;;;;;;;;5043954;28;20028;-62
2021/08/12 12:18:32;;;;;;;22.52;12.45;;;;;;;;;;5037523;28;20025;-64
2021/08/12 12:21:07;;;;;;;21.13;13.20;;;;;;;;;;5036055;28;20351;-63
2021/08/12 12:23:34;;;;;;;24.13;13.10;;;;;;;;;;5039828;28;20039;-62
2021/08/12 12:25:59;;;;;;;20.50;13.07;;;;;;;;;;5037721;28;20083;-63
2021/08/12 12:28:25;;;;;;;23.08;13.05;;;;;;;;;;5032000;28;20036;-63
2021/08/12 12:30:51;;;;;;;24.05;13.45;;;;;;;;;;5034665;28;20033;-63
2021/08/12 12:33:18;;;;;;;21.88;12.75;;;;;;;;;;5033337;28;20037;-63
2021/08/12 12:35:46;;;;;;;21.08;12.40;;;;;;;;;;5042457;28;20041;-63
2021/08/12 12:38:19;;;;;;;28.80;13.55;;;;;;;;;;5047796;28;21364;-63
2021/08/12 12:40:46;;;;;;;20.95;13.02;;;;;;;;;;5039090;28;20120;-67
2021/08/12 12:43:11;;;;;;;20.35;12.68;;;;;;;;;;5032547;28;20033;-67
2021/08/12 12:45:49;;;;;;;22.58;12.90;;;;;;;;;;5038023;28;20047;-67
2021/08/12 12:48:15;;;;;;;20.80;12.80;;;;;;;;;;5035942;28;20105;-66
2021/08/12 12:50:50;;;;;;;22.70;12.88;;;;;;;;;;5039326;28;20029;-66
2021/08/12 12:53:36;;;;;;;20.80;12.55;;;;;;;;;;5036928;28;20039;-67
2021/08/12 12:56:17;;;;;;;22.02;12.50;;;;;;;;;;5034875;28;20037;-68
2021/08/12 12:58:42;;;;;;;18.90;12.48;;;;;;;;;;5040016;28;20036;-67
2021/08/12 13:01:10;;;;;;;18.27;12.15;;;;;;;;;;5040143;28;20025;-68
2021/08/12 13:03:43;;;;;;;20.35;13.15;;;;;;;;;;5038704;28;20085;-68
2021/08/12 13:06:11;;;;;;;20.40;13.00;;;;;;;;;;5036176;28;20025;-67
2021/08/12 13:09:04;;;;;;;22.02;12.80;;;;;;;;;;5052031;28;20487;-69
2021/08/12 13:11:31;;;;;;;20.13;13.23;;;;;;;;;;5045462;28;20078;-68
2021/08/12 13:14:33;;;;;;;19.80;12.38;;;;;;;;;;5043165;28;20040;-68
2021/08/12 13:16:59;;;;;;;21.75;13.38;;;;;;;;;;5036078;28;20030;-67
2021/08/12 13:19:26;;;;;;;24.05;14.10;;;;;;;;;;5043206;28;20032;-66
2021/08/12 13:21:57;;;;;;;23.05;14.68;;;;;;;;;;5039723;28;20057;-66
2021/08/12 13:24:40;;;;;;;29.83;14.15;;;;;;;;;;5044726;28;20438;-67
2021/08/12 13:27:06;;;;;;;22.90;13.27;;;;;;;;;;5045781;28;20036;-68
2021/08/12 13:29:37;;;;;;;26.00;13.73;;;;;;;;;;5049142;28;21285;-68
2021/08/12 13:32:10;;;;;;;21.20;13.15;;;;;;;;;;5043740;28;20050;-68
2021/08/12 13:34:36;;;;;;;24.73;14.02;;;;;;;;;;5044362;28;20032;-69
2021/08/12 13:37:03;;;;;;;22.05;13.48;;;;;;;;;;5045827;28;20466;-69
2021/08/12 13:39:28;;;;;;;24.10;14.27;;;;;;;;;;5048298;28;20265;-66
2021/08/12 13:42:08;;;;;;;21.80;13.40;;;;;;;;;;5043037;28;20029;-68
2021/08/12 13:44:35;;;;;;;24.27;13.43;;;;;;;;;;5042085;28;20033;-68
2021/08/12 13:47:02;;;;;;;23.27;12.93;;;;;;;;;;5046507;28;20153;-71
2021/08/12 13:49:29;;;;;;;20.40;13.50;;;;;;;;;;5050003;28;20387;-68
2021/08/12 13:51:58;;;;;;;30.15;14.25;;;;;;;;;;5049134;28;20515;-67
2021/08/12 13:54:24;;;;;;;21.35;13.98;;;;;;;;;;5047114;28;20037;-66
2021/08/12 13:56:50;;;;;;;22.65;14.10;;;;;;;;;;5049461;28;20016;-67
2021/08/12 13:59:17;;;;;;;23.88;13.48;;;;;;;;;;5045034;28;20673;-67
2021/08/12 14:01:42;;;;;;;23.00;13.77;;;;;;;;;;5042285;28;20025;-66
2021/08/12 14:04:08;;;;;;;20.50;13.57;;;;;;;;;;5047347;28;20033;-68
2021/08/12 14:06:35;;;;;;;26.80;14.60;;;;;;;;;;5040202;28;20044;-68
2021/08/12 14:09:02;;;;;;;22.83;14.13;;;;;;;;;;5040449;28;20052;-64
2021/08/12 14:11:28;;;;;;;70.45;23.48;;;;;;;;;;5044333;28;20467;-63
2021/08/12 14:13:53;;;;;;;42.33;18.92;;;;;;;;;;5048790;28;20090;-64
2021/08/12 14:16:21;;;;;;;26.58;14.77;;;;;;;;;;5048434;28;20283;-63
2021/08/12 14:18:47;;;;;;;19.83;13.25;;;;;;;;;;5040405;28;20029;-63
2021/08/12 14:21:14;;;;;;;25.95;14.48;;;;;;;;;;5044467;28;20037;-63
2021/08/12 14:23:41;;;;;;;23.00;13.80;;;;;;;;;;5044546;28;20025;-63
2021/08/12 14:26:06;;;;;;;26.98;14.20;;;;;;;;;;5043522;28;20036;-63
2021/08/12 14:28:32;;;;;;;24.20;14.23;;;;;;;;;;5040144;28;20086;-63
2021/08/12 14:31:00;;;;;;;25.48;14.18;;;;;;;;;;5043033;28;20024;-63
2021/08/12 14:33:26;;;;;;;26.40;13.32;;;;;;;;;;5040809;28;20017;-64